sensor_id;sensor_type;location;lat;lon;timestamp;P1;durP1;ratioP1;P2;durP2;ratioP2
8268;SDS011;4174;48.304;16.364;2022-10-30T00:02:00;37.37;;;11.23;;
8268;SDS011;4174;48.304;16.364;2022-10-30T00:08:10;39.67;;;10.45;;
8268;SDS011;4174;48.304;16.364;2022-10-30T00:14:14;38.10;;;11.10;;
8268;SDS011;4174;48.304;16.364;2022-10-30T00:20:21;38.70;;;10.88;;
8268;SDS011;4174;48.304;16.364;2022-10-30T00:26:30;46.88;;;11.77;;
8268;SDS011;4174;48.304;16.364;2022-10-30T00:32:38;29.12;;;10.15;;
8268;SDS011;4174;48.304;16.364;2022-10-30T00:38:46;29.87;;;10.95;;
8268;SDS011;4174;48.304;16.364;2022-10-30T00:44:55;39.60;;;10.43;;
8268;SDS011;4174;48.304;16.364;2022-10-30T00:51:02;42.05;;;10.70;;
8268;SDS011;4174;48.304;16.364;2022-10-30T00:57:10;30.23;;;10.25;;
8268;SDS011;4174;48.304;16.364;2022-10-30T01:03:16;31.77;;;9.47;;
8268;SDS011;4174;48.304;16.364;2022-10-30T01:09:53;29.60;;;9.40;;
8268;SDS011;4174;48.304;16.364;2022-10-30T01:22:51;35.10;;;9.30;;
8268;SDS011;4174;48.304;16.364;2022-10-30T01:29:34;30.57;;;9.43;;
8268;SDS011;4174;48.304;16.364;2022-10-30T01:36:15;15.77;;;7.18;;
8268;SDS011;4174;48.304;16.364;2022-10-30T01:42:43;14.38;;;6.43;;
8268;SDS011;4174;48.304;16.364;2022-10-30T01:48:54;12.35;;;5.75;;
8268;SDS011;4174;48.304;16.364;2022-10-30T01:55:18;12.97;;;5.90;;
8268;SDS011;4174;48.304;16.364;2022-10-30T02:01:33;12.43;;;5.80;;
8268;SDS011;4174;48.304;16.364;2022-10-30T02:07:38;13.77;;;6.10;;
8268;SDS011;4174;48.304;16.364;2022-10-30T02:13:58;18.42;;;6.05;;
8268;SDS011;4174;48.304;16.364;2022-10-30T02:20:03;16.33;;;6.23;;
8268;SDS011;4174;48.304;16.364;2022-10-30T02:26:10;13.90;;;5.65;;
8268;SDS011;4174;48.304;16.364;2022-10-30T02:32:23;14.20;;;5.85;;
8268;SDS011;4174;48.304;16.364;2022-10-30T02:38:30;16.23;;;5.50;;
8268;SDS011;4174;48.304;16.364;2022-10-30T02:44:36;12.60;;;5.30;;
8268;SDS011;4174;48.304;16.364;2022-10-30T02:50:44;11.50;;;5.50;;
8268;SDS011;4174;48.304;16.364;2022-10-30T02:56:54;10.50;;;5.00;;
8268;SDS011;4174;48.304;16.364;2022-10-30T03:03:06;11.90;;;5.00;;
8268;SDS011;4174;48.304;16.364;2022-10-30T03:09:12;10.50;;;4.80;;
8268;SDS011;4174;48.304;16.364;2022-10-30T03:15:23;11.00;;;4.70;;
8268;SDS011;4174;48.304;16.364;2022-10-30T03:21:30;9.77;;;4.60;;
8268;SDS011;4174;48.304;16.364;2022-10-30T03:27:39;10.47;;;4.63;;
8268;SDS011;4174;48.304;16.364;2022-10-30T03:33:52;11.27;;;4.60;;
8268;SDS011;4174;48.304;16.364;2022-10-30T03:40:00;11.77;;;4.78;;
8268;SDS011;4174;48.304;16.364;2022-10-30T03:46:09;10.83;;;4.77;;
8268;SDS011;4174;48.304;16.364;2022-10-30T03:52:17;10.02;;;4.75;;
8268;SDS011;4174;48.304;16.364;2022-10-30T03:58:26;14.45;;;4.72;;
8268;SDS011;4174;48.304;16.364;2022-10-30T04:04:35;12.98;;;4.62;;
8268;SDS011;4174;48.304;16.364;2022-10-30T04:10:42;10.70;;;4.80;;
8268;SDS011;4174;48.304;16.364;2022-10-30T04:16:46;11.57;;;4.80;;
8268;SDS011;4174;48.304;16.364;2022-10-30T04:22:58;9.77;;;4.50;;
8268;SDS011;4174;48.304;16.364;2022-10-30T04:29:03;9.77;;;4.70;;
8268;SDS011;4174;48.304;16.364;2022-10-30T04:35:11;10.00;;;4.68;;
8268;SDS011;4174;48.304;16.364;2022-10-30T04:41:18;9.23;;;4.67;;
8268;SDS011;4174;48.304;16.364;2022-10-30T04:47:27;8.98;;;4.22;;
8268;SDS011;4174;48.304;16.364;2022-10-30T04:53:35;8.95;;;4.43;;
8268;SDS011;4174;48.304;16.364;2022-10-30T04:59:41;9.77;;;4.35;;
8268;SDS011;4174;48.304;16.364;2022-10-30T05:05:57;9.57;;;4.33;;
8268;SDS011;4174;48.304;16.364;2022-10-30T05:12:06;9.90;;;4.40;;
8268;SDS011;4174;48.304;16.364;2022-10-30T05:18:12;9.63;;;4.50;;
8268;SDS011;4174;48.304;16.364;2022-10-30T05:24:18;9.18;;;4.50;;
8268;SDS011;4174;48.304;16.364;2022-10-30T05:30:26;9.97;;;4.87;;
8268;SDS011;4174;48.304;16.364;2022-10-30T05:36:32;10.53;;;4.97;;
8268;SDS011;4174;48.304;16.364;2022-10-30T05:42:44;10.05;;;4.72;;
8268;SDS011;4174;48.304;16.364;2022-10-30T05:48:55;11.13;;;5.47;;
8268;SDS011;4174;48.304;16.364;2022-10-30T05:55:05;11.93;;;5.40;;
8268;SDS011;4174;48.304;16.364;2022-10-30T06:01:20;25.20;;;9.60;;
8268;SDS011;4174;48.304;16.364;2022-10-30T06:07:25;15.00;;;6.53;;
8268;SDS011;4174;48.304;16.364;2022-10-30T06:13:32;10.38;;;5.20;;
8268;SDS011;4174;48.304;16.364;2022-10-30T06:19:38;11.40;;;4.90;;
8268;SDS011;4174;48.304;16.364;2022-10-30T06:25:46;13.45;;;4.90;;
8268;SDS011;4174;48.304;16.364;2022-10-30T06:31:53;9.93;;;4.57;;
8268;SDS011;4174;48.304;16.364;2022-10-30T06:38:03;9.75;;;5.03;;
8268;SDS011;4174;48.304;16.364;2022-10-30T06:44:10;11.00;;;5.93;;
8268;SDS011;4174;48.304;16.364;2022-10-30T06:56:48;12.63;;;4.80;;
8268;SDS011;4174;48.304;16.364;2022-10-30T07:09:19;12.57;;;5.33;;
8268;SDS011;4174;48.304;16.364;2022-10-30T07:15:26;14.77;;;5.77;;
8268;SDS011;4174;48.304;16.364;2022-10-30T07:21:56;21.08;;;6.07;;
8268;SDS011;4174;48.304;16.364;2022-10-30T07:28:02;19.70;;;6.40;;
8268;SDS011;4174;48.304;16.364;2022-10-30T07:34:10;16.20;;;6.62;;
8268;SDS011;4174;48.304;16.364;2022-10-30T07:40:17;18.00;;;7.12;;
8268;SDS011;4174;48.304;16.364;2022-10-30T07:46:27;16.25;;;6.87;;
8268;SDS011;4174;48.304;16.364;2022-10-30T07:52:33;18.33;;;6.53;;
8268;SDS011;4174;48.304;16.364;2022-10-30T07:58:39;15.93;;;7.03;;
8268;SDS011;4174;48.304;16.364;2022-10-30T08:04:45;15.20;;;6.70;;
8268;SDS011;4174;48.304;16.364;2022-10-30T08:10:59;18.20;;;7.03;;
8268;SDS011;4174;48.304;16.364;2022-10-30T08:17:06;21.70;;;7.17;;
8268;SDS011;4174;48.304;16.364;2022-10-30T08:23:14;19.40;;;7.28;;
8268;SDS011;4174;48.304;16.364;2022-10-30T08:29:20;16.00;;;7.00;;
8268;SDS011;4174;48.304;16.364;2022-10-30T08:35:26;16.98;;;7.20;;
8268;SDS011;4174;48.304;16.364;2022-10-30T08:41:35;19.85;;;7.10;;
8268;SDS011;4174;48.304;16.364;2022-10-30T08:47:40;15.07;;;6.80;;
8268;SDS011;4174;48.304;16.364;2022-10-30T08:53:48;16.52;;;7.00;;
8268;SDS011;4174;48.304;16.364;2022-10-30T08:59:55;20.97;;;8.17;;
8268;SDS011;4174;48.304;16.364;2022-10-30T09:06:02;16.15;;;7.10;;
8268;SDS011;4174;48.304;16.364;2022-10-30T09:12:11;17.23;;;6.90;;
8268;SDS011;4174;48.304;16.364;2022-10-30T09:18:19;18.77;;;7.40;;
8268;SDS011;4174;48.304;16.364;2022-10-30T09:24:33;16.77;;;7.60;;
8268;SDS011;4174;48.304;16.364;2022-10-30T09:30:38;19.43;;;8.20;;
8268;SDS011;4174;48.304;16.364;2022-10-30T09:36:47;16.33;;;7.27;;
8268;SDS011;4174;48.304;16.364;2022-10-30T09:42:53;18.37;;;8.13;;
8268;SDS011;4174;48.304;16.364;2022-10-30T09:55:31;17.95;;;7.75;;
8268;SDS011;4174;48.304;16.364;2022-10-30T10:01:41;17.45;;;7.80;;
8268;SDS011;4174;48.304;16.364;2022-10-30T10:07:46;18.97;;;8.13;;
8268;SDS011;4174;48.304;16.364;2022-10-30T10:13:56;17.12;;;7.57;;
8268;SDS011;4174;48.304;16.364;2022-10-30T10:20:02;17.50;;;8.30;;
8268;SDS011;4174;48.304;16.364;2022-10-30T10:32:44;20.33;;;9.17;;
8268;SDS011;4174;48.304;16.364;2022-10-30T10:39:02;20.30;;;8.50;;
8268;SDS011;4174;48.304;16.364;2022-10-30T10:45:32;20.48;;;9.20;;
8268;SDS011;4174;48.304;16.364;2022-10-30T10:51:38;19.90;;;9.43;;
8268;SDS011;4174;48.304;16.364;2022-10-30T10:57:44;20.58;;;9.43;;
8268;SDS011;4174;48.304;16.364;2022-10-30T11:03:56;19.62;;;9.48;;
8268;SDS011;4174;48.304;16.364;2022-10-30T11:10:12;20.23;;;9.13;;
8268;SDS011;4174;48.304;16.364;2022-10-30T11:16:20;25.42;;;11.48;;
8268;SDS011;4174;48.304;16.364;2022-10-30T11:22:37;21.58;;;9.90;;
8268;SDS011;4174;48.304;16.364;2022-10-30T11:35:17;25.97;;;11.20;;
8268;SDS011;4174;48.304;16.364;2022-10-30T11:41:46;25.33;;;11.25;;
8268;SDS011;4174;48.304;16.364;2022-10-30T11:47:58;21.90;;;10.33;;
8268;SDS011;4174;48.304;16.364;2022-10-30T11:54:02;22.83;;;10.60;;
8268;SDS011;4174;48.304;16.364;2022-10-30T12:00:14;23.83;;;10.90;;
8268;SDS011;4174;48.304;16.364;2022-10-30T12:06:26;24.77;;;10.97;;
8268;SDS011;4174;48.304;16.364;2022-10-30T12:12:43;26.83;;;12.02;;
8268;SDS011;4174;48.304;16.364;2022-10-30T12:18:51;31.90;;;13.62;;
8268;SDS011;4174;48.304;16.364;2022-10-30T12:25:03;33.95;;;14.65;;
8268;SDS011;4174;48.304;16.364;2022-10-30T12:31:12;38.47;;;15.83;;
8268;SDS011;4174;48.304;16.364;2022-10-30T12:37:25;37.77;;;17.13;;
8268;SDS011;4174;48.304;16.364;2022-10-30T12:43:32;43.40;;;17.83;;
8268;SDS011;4174;48.304;16.364;2022-10-30T12:50:02;42.50;;;17.77;;
8268;SDS011;4174;48.304;16.364;2022-10-30T12:56:08;47.20;;;20.20;;
8268;SDS011;4174;48.304;16.364;2022-10-30T13:02:22;50.03;;;20.67;;
8268;SDS011;4174;48.304;16.364;2022-10-30T13:15:22;56.33;;;20.98;;
8268;SDS011;4174;48.304;16.364;2022-10-30T13:21:42;57.58;;;22.30;;
8268;SDS011;4174;48.304;16.364;2022-10-30T13:28:03;55.43;;;21.73;;
8268;SDS011;4174;48.304;16.364;2022-10-30T13:34:15;53.70;;;21.87;;
8268;SDS011;4174;48.304;16.364;2022-10-30T13:53:31;59.30;;;22.17;;
8268;SDS011;4174;48.304;16.364;2022-10-30T13:59:43;66.53;;;25.15;;
8268;SDS011;4174;48.304;16.364;2022-10-30T14:19:12;68.28;;;24.85;;
8268;SDS011;4174;48.304;16.364;2022-10-30T14:25:18;65.03;;;23.25;;
8268;SDS011;4174;48.304;16.364;2022-10-30T14:31:33;65.43;;;22.47;;
8268;SDS011;4174;48.304;16.364;2022-10-30T14:37:53;72.18;;;24.73;;
8268;SDS011;4174;48.304;16.364;2022-10-30T14:44:05;70.40;;;23.33;;
8268;SDS011;4174;48.304;16.364;2022-10-30T15:04:23;65.87;;;23.77;;
8268;SDS011;4174;48.304;16.364;2022-10-30T15:16:37;55.78;;;21.42;;
8268;SDS011;4174;48.304;16.364;2022-10-30T15:22:43;50.17;;;20.53;;
8268;SDS011;4174;48.304;16.364;2022-10-30T15:28:49;50.20;;;20.50;;
8268;SDS011;4174;48.304;16.364;2022-10-30T15:34:56;52.58;;;21.20;;
8268;SDS011;4174;48.304;16.364;2022-10-30T15:41:03;59.83;;;25.13;;
8268;SDS011;4174;48.304;16.364;2022-10-30T15:47:13;63.05;;;24.33;;
8268;SDS011;4174;48.304;16.364;2022-10-30T15:53:24;56.33;;;23.45;;
8268;SDS011;4174;48.304;16.364;2022-10-30T15:59:33;60.88;;;24.02;;
8268;SDS011;4174;48.304;16.364;2022-10-30T16:05:38;58.63;;;23.27;;
8268;SDS011;4174;48.304;16.364;2022-10-30T16:11:46;53.07;;;22.60;;
8268;SDS011;4174;48.304;16.364;2022-10-30T16:24:25;58.15;;;23.58;;
8268;SDS011;4174;48.304;16.364;2022-10-30T16:30:33;57.58;;;23.67;;
8268;SDS011;4174;48.304;16.364;2022-10-30T16:36:38;55.78;;;21.95;;
8268;SDS011;4174;48.304;16.364;2022-10-30T16:42:48;52.53;;;21.42;;
8268;SDS011;4174;48.304;16.364;2022-10-30T16:48:57;58.85;;;22.48;;
8268;SDS011;4174;48.304;16.364;2022-10-30T16:55:05;59.17;;;22.77;;
8268;SDS011;4174;48.304;16.364;2022-10-30T17:01:13;60.33;;;22.13;;
8268;SDS011;4174;48.304;16.364;2022-10-30T17:07:20;57.22;;;22.20;;
8268;SDS011;4174;48.304;16.364;2022-10-30T17:19:37;62.50;;;23.13;;
8268;SDS011;4174;48.304;16.364;2022-10-30T17:25:42;57.67;;;22.10;;
8268;SDS011;4174;48.304;16.364;2022-10-30T17:31:47;60.90;;;23.13;;
8268;SDS011;4174;48.304;16.364;2022-10-30T17:37:53;60.72;;;21.98;;
8268;SDS011;4174;48.304;16.364;2022-10-30T17:44:01;56.57;;;21.20;;
8268;SDS011;4174;48.304;16.364;2022-10-30T17:50:10;57.33;;;21.00;;
8268;SDS011;4174;48.304;16.364;2022-10-30T17:56:25;54.90;;;20.93;;
8268;SDS011;4174;48.304;16.364;2022-10-30T18:02:34;57.10;;;20.40;;
8268;SDS011;4174;48.304;16.364;2022-10-30T18:08:40;64.32;;;21.67;;
8268;SDS011;4174;48.304;16.364;2022-10-30T18:14:47;56.70;;;21.17;;
8268;SDS011;4174;48.304;16.364;2022-10-30T18:20:54;55.33;;;19.80;;
8268;SDS011;4174;48.304;16.364;2022-10-30T18:27:00;54.03;;;19.55;;
8268;SDS011;4174;48.304;16.364;2022-10-30T18:33:08;51.70;;;19.07;;
8268;SDS011;4174;48.304;16.364;2022-10-30T18:39:12;47.60;;;17.13;;
8268;SDS011;4174;48.304;16.364;2022-10-30T18:45:24;52.80;;;18.02;;
8268;SDS011;4174;48.304;16.364;2022-10-30T18:51:31;44.60;;;16.62;;
8268;SDS011;4174;48.304;16.364;2022-10-30T18:57:37;40.93;;;15.60;;
8268;SDS011;4174;48.304;16.364;2022-10-30T19:03:42;37.40;;;14.45;;
8268;SDS011;4174;48.304;16.364;2022-10-30T19:09:54;35.75;;;14.13;;
8268;SDS011;4174;48.304;16.364;2022-10-30T19:16:07;39.90;;;14.40;;
8268;SDS011;4174;48.304;16.364;2022-10-30T19:22:10;34.60;;;13.93;;
8268;SDS011;4174;48.304;16.364;2022-10-30T19:28:15;34.33;;;13.50;;
8268;SDS011;4174;48.304;16.364;2022-10-30T19:34:22;29.97;;;12.83;;
8268;SDS011;4174;48.304;16.364;2022-10-30T19:40:35;33.28;;;13.48;;
8268;SDS011;4174;48.304;16.364;2022-10-30T19:46:41;37.03;;;14.00;;
8268;SDS011;4174;48.304;16.364;2022-10-30T19:52:49;33.23;;;13.67;;
8268;SDS011;4174;48.304;16.364;2022-10-30T19:58:56;32.20;;;12.85;;
8268;SDS011;4174;48.304;16.364;2022-10-30T20:05:03;24.40;;;10.43;;
8268;SDS011;4174;48.304;16.364;2022-10-30T20:11:10;23.23;;;10.53;;
8268;SDS011;4174;48.304;16.364;2022-10-30T20:17:19;27.83;;;11.43;;
8268;SDS011;4174;48.304;16.364;2022-10-30T20:23:24;32.30;;;12.80;;
8268;SDS011;4174;48.304;16.364;2022-10-30T20:29:31;29.73;;;12.00;;
8268;SDS011;4174;48.304;16.364;2022-10-30T20:35:36;29.30;;;11.63;;
8268;SDS011;4174;48.304;16.364;2022-10-30T20:41:42;28.63;;;11.47;;
8268;SDS011;4174;48.304;16.364;2022-10-30T20:47:47;29.67;;;11.03;;
8268;SDS011;4174;48.304;16.364;2022-10-30T20:53:53;27.60;;;11.27;;
8268;SDS011;4174;48.304;16.364;2022-10-30T21:00:04;26.70;;;10.90;;
8268;SDS011;4174;48.304;16.364;2022-10-30T21:06:10;25.93;;;9.97;;
8268;SDS011;4174;48.304;16.364;2022-10-30T21:12:17;23.05;;;9.73;;
8268;SDS011;4174;48.304;16.364;2022-10-30T21:18:24;22.33;;;9.10;;
8268;SDS011;4174;48.304;16.364;2022-10-30T21:24:30;24.95;;;10.00;;
8268;SDS011;4174;48.304;16.364;2022-10-30T21:30:36;23.25;;;9.77;;
8268;SDS011;4174;48.304;16.364;2022-10-30T21:36:44;22.50;;;9.30;;
8268;SDS011;4174;48.304;16.364;2022-10-30T21:42:51;23.43;;;10.10;;
8268;SDS011;4174;48.304;16.364;2022-10-30T21:49:01;21.30;;;9.68;;
8268;SDS011;4174;48.304;16.364;2022-10-30T21:55:05;24.93;;;11.10;;
8268;SDS011;4174;48.304;16.364;2022-10-30T22:01:15;23.30;;;10.27;;
8268;SDS011;4174;48.304;16.364;2022-10-30T22:07:20;26.50;;;11.32;;
8268;SDS011;4174;48.304;16.364;2022-10-30T22:19:51;25.10;;;11.50;;
8268;SDS011;4174;48.304;16.364;2022-10-30T22:26:01;29.10;;;12.23;;
8268;SDS011;4174;48.304;16.364;2022-10-30T22:32:06;29.03;;;12.33;;
8268;SDS011;4174;48.304;16.364;2022-10-30T22:38:12;28.73;;;12.07;;
8268;SDS011;4174;48.304;16.364;2022-10-30T22:44:18;29.10;;;12.10;;
8268;SDS011;4174;48.304;16.364;2022-10-30T22:50:26;31.67;;;12.70;;
8268;SDS011;4174;48.304;16.364;2022-10-30T22:56:35;33.57;;;13.03;;
8268;SDS011;4174;48.304;16.364;2022-10-30T23:02:39;33.22;;;13.13;;
8268;SDS011;4174;48.304;16.364;2022-10-30T23:08:53;34.42;;;13.48;;
8268;SDS011;4174;48.304;16.364;2022-10-30T23:14:59;31.08;;;13.10;;
8268;SDS011;4174;48.304;16.364;2022-10-30T23:21:07;33.03;;;13.10;;
8268;SDS011;4174;48.304;16.364;2022-10-30T23:27:13;30.62;;;12.93;;
8268;SDS011;4174;48.304;16.364;2022-10-30T23:33:22;31.25;;;12.77;;
8268;SDS011;4174;48.304;16.364;2022-10-30T23:39:30;31.17;;;12.98;;
8268;SDS011;4174;48.304;16.364;2022-10-30T23:45:35;29.37;;;12.65;;
8268;SDS011;4174;48.304;16.364;2022-10-30T23:52:11;25.67;;;11.17;;
8268;SDS011;4174;48.304;16.364;2022-10-30T23:57:58;26.63;;;11.47;;
